createdAt,value
2018-09-10T00:01:22.355Z,46.80
2018-09-10T00:03:49.940Z,49.60
2018-09-10T00:06:17.467Z,49.70
2018-09-10T00:08:46.283Z,53.90
2018-09-10T00:11:13.867Z,50.20
2018-09-10T00:13:41.387Z,49.00
2018-09-10T00:16:08.918Z,52.40
2018-09-10T00:18:36.623Z,49.50
2018-09-10T00:21:04.248Z,48.60
2018-09-10T00:23:31.843Z,48.80
2018-09-10T00:26:00.056Z,50.00
2018-09-10T00:28:27.743Z,52.10
2018-09-10T00:30:55.604Z,54.80
2018-09-10T00:33:23.259Z,53.20
2018-09-10T00:35:51.650Z,50.10
2018-09-10T00:38:19.397Z,52.40
2018-09-10T00:40:46.930Z,52.10
2018-09-10T00:43:14.444Z,51.50
2018-09-10T00:45:42.266Z,51.10
2018-09-10T00:48:09.776Z,50.30
2018-09-10T00:50:37.258Z,51.70
2018-09-10T00:53:04.802Z,47.40
2018-09-10T00:55:32.296Z,47.80
2018-09-10T00:57:59.826Z,52.40
2018-09-10T01:00:27.381Z,52.70
2018-09-10T01:02:55.025Z,52.50
2018-09-10T01:05:22.536Z,49.70
2018-09-10T01:07:50.135Z,50.80
2018-09-10T01:10:17.955Z,55.40
2018-09-10T01:12:45.746Z,55.00
2018-09-10T01:15:13.451Z,53.90
2018-09-10T01:17:41.023Z,53.50
2018-09-10T01:20:08.555Z,52.70
2018-09-10T01:22:36.071Z,49.70
2018-09-10T01:25:03.680Z,50.90
2018-09-10T01:27:31.555Z,51.10
2018-09-10T01:29:59.310Z,51.60
2018-09-10T01:32:26.893Z,48.50
2018-09-10T01:34:59.931Z,49.70
2018-09-10T01:37:27.504Z,53.60
2018-09-10T01:39:55.313Z,53.80
2018-09-10T01:42:22.861Z,52.00
2018-09-10T01:44:50.419Z,52.10
2018-09-10T01:47:17.914Z,51.90
2018-09-10T01:49:45.581Z,51.70
2018-09-10T01:52:13.148Z,52.50
2018-09-10T01:54:40.726Z,51.40
2018-09-10T01:57:08.296Z,47.60
2018-09-10T01:59:35.839Z,51.30
2018-09-10T02:02:03.320Z,52.40
2018-09-10T02:04:30.819Z,52.40
2018-09-10T02:06:58.385Z,51.70
2018-09-10T02:09:25.959Z,49.90
2018-09-10T02:11:53.426Z,50.10
2018-09-10T02:14:21.009Z,51.70
2018-09-10T02:16:48.627Z,50.20
2018-09-10T02:19:16.239Z,50.70
2018-09-10T02:21:43.704Z,52.80
2018-09-10T02:24:11.368Z,52.90
2018-09-10T02:26:38.879Z,49.90
2018-09-10T02:29:06.371Z,51.70
2018-09-10T02:31:33.951Z,51.10
2018-09-10T02:34:01.465Z,51.60
2018-09-10T02:36:28.922Z,49.90
2018-09-10T02:38:56.404Z,51.50
2018-09-10T02:41:24.002Z,52.60
2018-09-10T02:43:51.613Z,52.80
2018-09-10T02:46:19.126Z,54.30
2018-09-10T02:48:46.756Z,54.70
2018-09-10T02:51:14.372Z,56.40
2018-09-10T02:53:42.180Z,57.50
2018-09-10T02:56:09.722Z,55.70
2018-09-10T02:58:37.484Z,54.40
2018-09-10T03:01:05.200Z,53.50
2018-09-10T03:03:32.664Z,53.70
2018-09-10T03:06:00.265Z,53.90
2018-09-10T03:08:27.860Z,52.90
2018-09-10T03:10:55.380Z,51.20
2018-09-10T03:13:22.965Z,53.30
2018-09-10T03:15:50.599Z,53.10
2018-09-10T03:18:18.169Z,51.90
2018-09-10T03:20:45.921Z,52.60
2018-09-10T03:23:13.435Z,52.40
2018-09-10T03:25:40.930Z,50.20
2018-09-10T03:28:08.565Z,50.20
2018-09-10T03:30:36.071Z,54.30
2018-09-10T03:33:03.712Z,54.10
2018-09-10T03:35:31.224Z,51.80
2018-09-10T03:37:58.887Z,49.80
2018-09-10T03:40:26.380Z,52.40
2018-09-10T03:42:53.988Z,55.60
2018-09-10T03:45:21.531Z,55.40
2018-09-10T03:47:49.168Z,54.90
2018-09-10T03:50:16.637Z,54.50
2018-09-10T03:52:44.271Z,53.00
2018-09-10T03:55:11.796Z,51.80
2018-09-10T03:57:39.307Z,51.40
2018-09-10T04:00:06.914Z,49.90
2018-09-10T04:02:34.495Z,50.80
2018-09-10T04:05:02.042Z,55.10
2018-09-10T04:07:29.876Z,53.00
2018-09-10T04:09:57.492Z,54.90
2018-09-10T04:12:24.989Z,54.50
2018-09-10T04:14:52.555Z,52.70
2018-09-10T04:17:20.063Z,54.80
2018-09-10T04:19:47.627Z,57.90
2018-09-10T04:22:15.066Z,55.00
2018-09-10T04:24:42.699Z,57.20
2018-09-10T04:27:10.182Z,55.90
2018-09-10T04:29:37.704Z,55.00
2018-09-10T04:32:05.612Z,52.50
2018-09-10T04:34:33.315Z,53.50
2018-09-10T04:37:00.928Z,52.70
2018-09-10T04:39:28.492Z,53.20
2018-09-10T04:41:55.944Z,52.80
2018-09-10T04:44:23.603Z,52.00
2018-09-10T04:46:51.063Z,52.30
2018-09-10T04:49:18.575Z,52.60
2018-09-10T04:51:46.131Z,51.40
2018-09-10T04:54:13.721Z,52.80
2018-09-10T04:56:41.274Z,54.20
2018-09-10T04:59:08.950Z,54.40
2018-09-10T05:01:36.483Z,53.90
2018-09-10T05:04:04.172Z,53.90
2018-09-10T05:06:31.944Z,53.90
2018-09-10T05:08:59.445Z,53.40
2018-09-10T05:11:27.024Z,51.10
2018-09-10T05:13:54.623Z,50.60
2018-09-10T05:16:22.160Z,53.70
2018-09-10T05:18:49.717Z,56.90
2018-09-10T05:21:17.238Z,56.00
2018-09-10T05:23:44.898Z,53.40
2018-09-10T05:26:12.572Z,53.40
2018-09-10T05:28:40.109Z,53.10
2018-09-10T05:31:07.757Z,53.60
2018-09-10T05:33:35.379Z,54.10
2018-09-10T05:36:02.977Z,51.30
2018-09-10T05:38:30.549Z,52.90
2018-09-10T05:40:58.183Z,54.20
2018-09-10T05:43:25.987Z,56.80
2018-09-10T05:45:53.521Z,56.50
2018-09-10T05:48:21.210Z,55.90
2018-09-10T05:50:48.763Z,55.30
2018-09-10T05:53:16.317Z,54.00
2018-09-10T05:55:43.904Z,53.60
2018-09-10T05:58:13.880Z,52.40
2018-09-10T06:00:41.540Z,53.60
2018-09-10T06:03:09.085Z,52.10
2018-09-10T06:05:36.572Z,54.00
2018-09-10T06:08:04.214Z,52.90
2018-09-10T06:10:31.736Z,52.30
2018-09-10T06:12:59.191Z,52.10
2018-09-10T06:15:26.768Z,51.80
2018-09-10T06:17:54.291Z,51.30
2018-09-10T06:20:21.856Z,48.90
2018-09-10T06:22:49.487Z,48.40
2018-09-10T06:25:16.990Z,51.00
2018-09-10T06:27:44.657Z,49.60
2018-09-10T06:30:12.168Z,50.30
2018-09-10T06:32:39.760Z,50.20
2018-09-10T06:35:07.271Z,48.90
2018-09-10T06:37:34.915Z,50.10
2018-09-10T06:40:02.446Z,49.50
2018-09-10T06:42:29.935Z,49.40
2018-09-10T06:44:57.459Z,49.10
2018-09-10T06:47:25.115Z,47.20
2018-09-10T06:49:52.654Z,47.20
2018-09-10T06:52:22.093Z,47.40
2018-09-10T06:54:49.801Z,44.00
2018-09-10T06:57:17.304Z,46.40
2018-09-10T06:59:44.961Z,45.40
2018-09-10T07:02:12.455Z,43.50
2018-09-10T07:04:40.065Z,43.50
2018-09-10T07:07:07.592Z,44.10
2018-09-10T07:09:35.123Z,43.70
2018-09-10T07:12:04.910Z,43.20
2018-09-10T07:14:32.491Z,44.30
2018-09-10T07:17:00.180Z,44.90
2018-09-10T07:19:27.676Z,46.30
2018-09-10T07:21:55.346Z,46.10
2018-09-10T07:24:23.001Z,46.40
2018-09-10T07:26:50.546Z,46.30
2018-09-10T07:29:18.165Z,45.80
2018-09-10T07:31:45.915Z,45.50
2018-09-10T07:34:13.451Z,45.40
2018-09-10T07:36:41.551Z,42.40
2018-09-10T07:39:10.632Z,41.20
2018-09-10T07:41:38.171Z,41.40
2018-09-10T07:44:06.267Z,40.90
2018-09-10T07:46:33.873Z,40.80
2018-09-10T07:49:01.497Z,40.70
2018-09-10T07:51:29.023Z,40.40
2018-09-10T07:53:56.874Z,40.20
2018-09-10T07:56:24.662Z,39.80
2018-09-10T07:58:52.823Z,39.80
2018-09-10T08:01:20.351Z,41.30
2018-09-10T08:03:47.862Z,41.10
2018-09-10T08:06:15.596Z,40.60
2018-09-10T08:08:43.181Z,40.00
2018-09-10T08:11:10.677Z,40.80
2018-09-10T08:13:38.245Z,41.30
2018-09-10T08:16:06.071Z,41.30
2018-09-10T08:18:33.592Z,41.60
2018-09-10T08:21:01.230Z,41.40
2018-09-10T08:23:28.738Z,42.20
2018-09-10T08:25:56.347Z,42.30
2018-09-10T08:28:23.931Z,39.70
2018-09-10T08:30:51.591Z,41.50
2018-09-10T08:33:19.179Z,41.80
2018-09-10T08:35:46.791Z,41.60
2018-09-10T08:38:14.293Z,41.50
2018-09-10T08:40:42.111Z,41.50
2018-09-10T08:43:09.810Z,41.20
2018-09-10T08:45:37.290Z,40.70
2018-09-10T08:48:04.892Z,40.60
2018-09-10T08:50:32.484Z,39.30
2018-09-10T08:53:00.069Z,39.90
2018-09-10T08:55:27.702Z,38.30
2018-09-10T08:57:55.223Z,39.90
2018-09-10T09:00:22.774Z,40.20
2018-09-10T09:02:50.215Z,40.40
2018-09-10T09:05:17.811Z,41.10
2018-09-10T09:07:45.479Z,41.10
2018-09-10T09:10:13.024Z,40.50
2018-09-10T09:12:40.678Z,40.40
2018-09-10T09:15:08.391Z,38.50
2018-09-10T09:17:36.122Z,36.90
2018-09-10T09:20:04.075Z,36.40
2018-09-10T09:22:31.726Z,34.30
2018-09-10T09:24:59.212Z,35.40
2018-09-10T09:27:26.811Z,36.20
2018-09-10T09:29:54.474Z,35.70
2018-09-10T09:32:22.044Z,34.70
2018-09-10T09:34:54.586Z,33.80
2018-09-10T09:37:28.212Z,34.20
2018-09-10T09:40:01.570Z,33.90
2018-09-10T09:42:34.760Z,34.30
2018-09-10T09:45:07.971Z,35.40
2018-09-10T09:47:35.712Z,36.60
2018-09-10T09:50:03.480Z,37.90
2018-09-10T09:52:31.239Z,37.40
2018-09-10T09:54:59.281Z,37.00
2018-09-10T09:57:26.791Z,37.00
2018-09-10T09:59:54.447Z,37.00
2018-09-10T10:03:25.659Z,37.70
2018-09-10T10:05:53.148Z,38.30
2018-09-10T10:08:20.628Z,39.40
2018-09-10T10:10:48.163Z,40.20
2018-09-10T10:13:15.767Z,40.80
2018-09-10T10:15:43.327Z,39.50
2018-09-10T10:18:10.820Z,38.40
2018-09-10T10:20:38.631Z,38.40
2018-09-10T10:23:06.180Z,38.50
2018-09-10T10:25:33.853Z,39.30
2018-09-10T10:28:01.465Z,39.50
2018-09-10T10:30:29.008Z,38.80
2018-09-10T10:32:56.525Z,38.70
2018-09-10T10:35:24.003Z,37.30
2018-09-10T10:37:51.620Z,37.90
2018-09-10T10:40:19.170Z,38.50
2018-09-10T10:42:46.687Z,38.20
2018-09-10T10:45:14.158Z,37.10
2018-09-10T10:47:41.727Z,36.30
2018-09-10T10:50:09.247Z,34.70
2018-09-10T10:52:36.791Z,32.90
2018-09-10T10:55:04.419Z,30.80
2018-09-10T10:57:31.982Z,29.50
2018-09-10T10:59:59.590Z,28.90
2018-09-10T11:02:27.134Z,27.40
2018-09-10T11:04:54.951Z,25.50
2018-09-10T11:07:22.507Z,28.10
2018-09-10T11:09:50.166Z,28.60
2018-09-10T11:12:17.748Z,29.30
2018-09-10T11:14:45.243Z,29.60
2018-09-10T11:17:12.811Z,29.90
2018-09-10T11:19:40.325Z,28.90
2018-09-10T11:22:07.870Z,30.90
2018-09-10T11:24:35.399Z,31.10
2018-09-10T11:27:02.890Z,31.80
2018-09-10T11:29:30.420Z,30.80
2018-09-10T11:31:58.171Z,32.00
2018-09-10T11:34:25.871Z,33.40
2018-09-10T11:36:53.519Z,35.10
2018-09-10T11:39:21.248Z,36.00
2018-09-10T11:41:48.718Z,34.40
2018-09-10T11:44:16.276Z,28.20
2018-09-10T11:46:43.771Z,33.40
2018-09-10T11:49:11.450Z,35.70
2018-09-10T11:51:38.987Z,37.30
2018-09-10T11:54:06.551Z,32.30
2018-09-10T11:56:34.052Z,31.80
2018-09-10T11:59:01.817Z,29.80
2018-09-10T12:01:29.479Z,30.80
2018-09-10T12:03:56.980Z,29.00
2018-09-10T12:06:24.626Z,33.60
2018-09-10T12:08:52.284Z,35.30
2018-09-10T12:11:19.816Z,31.20
2018-09-10T12:13:47.541Z,36.00
2018-09-10T12:16:15.185Z,37.80
2018-09-10T12:18:42.656Z,40.10
2018-09-10T12:21:11.290Z,40.70
2018-09-10T12:23:38.770Z,33.10
2018-09-10T12:26:06.781Z,31.40
2018-09-10T12:28:34.483Z,35.40
2018-09-10T12:31:04.354Z,32.00
2018-09-10T12:33:31.902Z,30.70
2018-09-10T12:35:59.507Z,34.90
2018-09-10T12:38:27.708Z,36.50
2018-09-10T12:40:55.208Z,35.40
2018-09-10T12:43:22.717Z,38.20
2018-09-10T12:45:50.207Z,40.10
2018-09-10T12:48:17.719Z,40.90
2018-09-10T12:50:45.518Z,36.70
2018-09-10T12:53:13.164Z,34.10
2018-09-10T12:55:40.680Z,34.10
2018-09-10T12:58:09.226Z,32.50
2018-09-10T13:00:36.811Z,31.40
2018-09-10T13:03:04.487Z,34.80
2018-09-10T13:05:32.208Z,32.60
2018-09-10T13:07:59.917Z,31.80
2018-09-10T13:10:27.388Z,30.20
2018-09-10T13:12:54.996Z,30.60
2018-09-10T13:15:22.496Z,31.30
2018-09-10T13:17:50.092Z,31.10
2018-09-10T13:20:17.542Z,34.30
2018-09-10T13:22:45.341Z,34.20
2018-09-10T13:25:12.848Z,30.60
2018-09-10T13:27:40.402Z,29.70
2018-09-10T13:30:08.079Z,28.90
2018-09-10T13:32:35.652Z,28.30
2018-09-10T13:35:03.266Z,26.40
2018-09-10T13:37:30.848Z,26.60
2018-09-10T13:39:58.437Z,27.60
2018-09-10T13:42:25.928Z,27.40
2018-09-10T13:44:53.503Z,28.30
2018-09-10T13:47:21.016Z,26.30
2018-09-10T13:49:48.627Z,28.90
2018-09-10T13:52:16.244Z,27.10
2018-09-10T13:54:43.799Z,29.80
2018-09-10T13:57:11.349Z,29.10
2018-09-10T13:59:39.023Z,31.50
2018-09-10T14:02:06.507Z,31.90
2018-09-10T14:04:34.211Z,29.70
2018-09-10T14:07:01.752Z,31.60
2018-09-10T14:09:29.247Z,27.30
2018-09-10T14:11:56.792Z,28.90
2018-09-10T14:14:24.556Z,30.70
2018-09-10T14:16:52.052Z,30.30
2018-09-10T14:19:19.533Z,27.80
2018-09-10T14:21:47.090Z,27.20
2018-09-10T14:24:14.559Z,26.70
2018-09-10T14:26:42.082Z,27.10
2018-09-10T14:29:09.518Z,27.90
2018-09-10T14:31:37.028Z,31.70
2018-09-10T14:34:05.149Z,31.60
2018-09-10T14:36:32.595Z,28.80
2018-09-10T14:39:00.041Z,32.60
2018-09-10T14:41:27.559Z,34.30
2018-09-10T14:43:54.982Z,34.00
2018-09-10T14:46:22.434Z,34.90
2018-09-10T14:48:49.894Z,35.50
2018-09-10T14:51:17.320Z,36.00
2018-09-10T14:53:44.717Z,36.60
2018-09-10T14:56:12.203Z,29.80
2018-09-10T14:58:39.628Z,29.30
2018-09-10T15:01:07.118Z,34.70
2018-09-10T15:03:34.666Z,35.50
2018-09-10T15:06:02.290Z,32.10
2018-09-10T15:08:29.730Z,29.20
2018-09-10T15:10:57.198Z,28.90
2018-09-10T15:13:24.847Z,29.00
2018-09-10T15:15:52.260Z,28.60
2018-09-10T15:18:19.857Z,29.00
2018-09-10T15:20:47.266Z,28.80
2018-09-10T15:23:14.930Z,32.50
2018-09-10T15:25:42.366Z,36.50
2018-09-10T15:28:09.916Z,38.10
2018-09-10T15:30:37.410Z,38.90
2018-09-10T15:33:05.312Z,34.10
2018-09-10T15:35:32.792Z,36.70
2018-09-10T15:38:00.215Z,38.70
2018-09-10T15:40:27.666Z,35.50
2018-09-10T15:42:55.255Z,33.30
2018-09-10T15:45:22.709Z,33.10
2018-09-10T15:47:50.270Z,30.10
2018-09-10T15:50:17.683Z,30.40
2018-09-10T15:52:45.152Z,35.10
2018-09-10T15:55:12.610Z,32.30
2018-09-10T15:57:40.089Z,35.90
2018-09-10T16:00:07.639Z,35.80
2018-09-10T16:02:35.059Z,33.00
2018-09-10T16:05:02.554Z,32.00
2018-09-10T16:07:30.039Z,31.70
2018-09-10T16:09:57.574Z,35.40
2018-09-10T16:12:25.037Z,34.10
2018-09-10T16:14:52.498Z,36.90
2018-09-10T16:17:20.050Z,36.80
2018-09-10T16:19:47.565Z,36.00
2018-09-10T16:22:15.127Z,35.40
2018-09-10T16:24:42.636Z,34.20
2018-09-10T16:27:10.085Z,32.30
2018-09-10T16:29:37.536Z,38.10
2018-09-10T16:32:05.103Z,39.70
2018-09-10T16:34:32.544Z,41.10
2018-09-10T16:37:00.014Z,38.00
2018-09-10T16:39:27.529Z,40.20
2018-09-10T16:41:55.081Z,40.70
2018-09-10T16:44:22.685Z,35.90
2018-09-10T16:46:50.282Z,39.30
2018-09-10T16:49:17.726Z,38.70
2018-09-10T16:51:45.219Z,39.50
2018-09-10T16:54:12.803Z,36.90
2018-09-10T16:56:40.246Z,38.50
2018-09-10T16:59:07.731Z,35.00
2018-09-10T17:01:35.194Z,34.90
2018-09-10T17:04:02.754Z,37.60
2018-09-10T17:06:30.253Z,38.90
2018-09-10T17:08:57.715Z,35.10
2018-09-10T17:11:25.193Z,37.20
2018-09-10T17:13:52.755Z,36.90
2018-09-10T17:16:20.309Z,34.50
2018-09-10T17:18:47.793Z,34.90
2018-09-10T17:21:15.271Z,35.00
2018-09-10T17:23:42.702Z,35.00
2018-09-10T17:26:10.097Z,35.60
2018-09-10T17:28:37.602Z,35.60
2018-09-10T17:31:05.072Z,39.90
2018-09-10T17:33:32.526Z,41.70
2018-09-10T17:35:59.992Z,42.90
2018-09-10T17:38:27.494Z,43.90
2018-09-10T17:40:54.971Z,44.60
2018-09-10T17:43:22.473Z,44.70
2018-09-10T17:45:49.928Z,44.70
2018-09-10T17:48:17.358Z,45.10
2018-09-10T17:50:44.873Z,45.50
2018-09-10T17:53:12.317Z,45.30
2018-09-10T17:55:39.806Z,45.30
2018-09-10T17:58:07.334Z,45.50
2018-09-10T18:00:38.530Z,45.60
2018-09-10T18:03:07.009Z,45.40
2018-09-10T18:05:34.502Z,45.40
2018-09-10T18:08:01.929Z,45.50
2018-09-10T18:10:29.413Z,45.50
2018-09-10T18:12:56.839Z,45.60
2018-09-10T18:15:24.312Z,45.70
2018-09-10T18:17:51.756Z,45.80
2018-09-10T18:20:19.213Z,45.70
2018-09-10T18:22:46.634Z,45.80
2018-09-10T18:25:14.103Z,45.80
2018-09-10T18:27:41.554Z,45.90
2018-09-10T18:30:09.074Z,45.90
2018-09-10T18:32:36.617Z,45.80
2018-09-10T18:35:04.088Z,45.80
2018-09-10T18:37:31.565Z,46.00
2018-09-10T18:39:59.166Z,46.00
2018-09-10T18:42:26.778Z,45.90
2018-09-10T18:44:54.434Z,45.90
2018-09-10T18:47:21.971Z,45.80
2018-09-10T18:50:14.886Z,45.80
2018-09-10T18:52:42.784Z,46.00
2018-09-10T18:55:10.330Z,46.50
2018-09-10T18:57:37.859Z,45.50
2018-09-10T19:00:05.826Z,45.90
2018-09-10T19:02:33.410Z,45.90
2018-09-10T19:05:00.984Z,45.80
2018-09-10T19:07:29.300Z,45.90
2018-09-10T19:09:57.038Z,45.70
2018-09-10T19:12:24.544Z,45.80
2018-09-10T19:14:52.175Z,45.80
2018-09-10T19:17:19.603Z,45.20
2018-09-10T19:19:47.286Z,43.70
2018-09-10T19:22:14.765Z,44.80
2018-09-10T19:24:42.229Z,44.80
2018-09-10T19:27:09.799Z,45.50
2018-09-10T19:29:37.298Z,45.30
2018-09-10T19:32:04.833Z,40.70
2018-09-10T19:34:33.164Z,40.40
2018-09-10T19:37:00.760Z,45.90
2018-09-10T19:39:28.274Z,45.40
2018-09-10T19:41:56.438Z,45.80
2018-09-10T19:44:23.971Z,46.30
2018-09-10T19:46:51.503Z,42.90
2018-09-10T19:49:18.987Z,40.40
2018-09-10T19:51:46.431Z,43.20
2018-09-10T19:54:13.875Z,46.60
2018-09-10T19:56:41.345Z,41.20
2018-09-10T19:59:08.915Z,42.40
2018-09-10T20:01:36.351Z,44.40
2018-09-10T20:04:03.915Z,44.20
2018-09-10T20:06:31.505Z,46.00
2018-09-10T20:08:58.967Z,46.50
2018-09-10T20:11:26.434Z,43.40
2018-09-10T20:13:53.902Z,45.20
2018-09-10T20:16:21.398Z,46.10
2018-09-10T20:18:48.845Z,46.40
2018-09-10T20:21:16.366Z,45.60
2018-09-10T20:23:43.812Z,46.60
2018-09-10T20:26:11.272Z,46.50
2018-09-10T20:28:38.753Z,44.20
2018-09-10T20:31:06.349Z,46.30
2018-09-10T20:33:39.185Z,46.50
2018-09-10T20:36:06.703Z,47.10
2018-09-10T20:38:34.242Z,46.00
2018-09-10T20:41:01.851Z,46.00
2018-09-10T20:43:29.419Z,46.50
2018-09-10T20:45:56.954Z,46.40
2018-09-10T20:48:24.602Z,46.90
2018-09-10T20:50:52.190Z,46.20
2018-09-10T20:53:19.920Z,46.00
2018-09-10T20:57:35.920Z,46.20
2018-09-10T21:00:03.815Z,43.30
2018-09-10T21:02:31.254Z,45.90
2018-09-10T21:04:58.714Z,46.40
2018-09-10T21:07:26.320Z,46.10
2018-09-10T21:09:53.762Z,46.00
2018-09-10T21:12:21.310Z,46.00
2018-09-10T21:14:48.800Z,45.80
2018-09-10T21:17:16.290Z,45.80
2018-09-10T21:19:43.773Z,45.70
2018-09-10T21:22:11.229Z,45.70
2018-09-10T21:24:38.708Z,45.60
2018-09-10T21:27:06.227Z,45.60
2018-09-10T21:29:33.663Z,45.60
2018-09-10T21:32:01.129Z,45.70
2018-09-10T21:34:28.575Z,45.70
2018-09-10T21:36:56.034Z,45.80
2018-09-10T21:39:23.516Z,45.70
2018-09-10T21:41:50.951Z,45.70
2018-09-10T21:44:18.441Z,45.60
2018-09-10T21:46:45.884Z,43.80
2018-09-10T21:49:13.469Z,45.40
2018-09-10T21:51:40.987Z,45.30
2018-09-10T21:54:08.568Z,42.70
2018-09-10T21:56:36.081Z,44.30
2018-09-10T21:59:03.588Z,45.40
2018-09-10T22:01:31.043Z,44.60
2018-09-10T22:03:58.510Z,46.10
2018-09-10T22:06:25.943Z,45.60
2018-09-10T22:08:53.534Z,44.90
2018-09-10T22:11:21.057Z,44.00
2018-09-10T22:13:48.636Z,45.80
2018-09-10T22:16:16.322Z,44.30
2018-09-10T22:18:43.764Z,44.80
2018-09-10T22:21:11.305Z,45.40
2018-09-10T22:23:38.775Z,45.80
2018-09-10T22:26:06.205Z,46.20
2018-09-10T22:28:34.325Z,45.60
2018-09-10T22:31:01.785Z,46.90
2018-09-10T22:33:29.357Z,47.10
2018-09-10T22:35:56.892Z,45.50
2018-09-10T22:38:24.401Z,46.90
2018-09-10T22:40:51.830Z,46.30
2018-09-10T22:43:19.282Z,46.80
2018-09-10T22:45:46.863Z,47.30
2018-09-10T22:48:14.273Z,47.00
2018-09-10T22:50:41.864Z,46.90
2018-09-10T22:53:09.318Z,47.50
2018-09-10T22:55:36.769Z,46.60
2018-09-10T22:58:04.506Z,46.60
2018-09-10T23:00:32.046Z,47.80
2018-09-10T23:02:59.499Z,47.80
2018-09-10T23:05:26.986Z,47.80
2018-09-10T23:07:54.490Z,47.60
2018-09-10T23:10:22.019Z,47.70
2018-09-10T23:12:49.440Z,47.70
2018-09-10T23:15:16.862Z,47.80
2018-09-10T23:17:44.353Z,47.30
2018-09-10T23:20:11.774Z,48.00
2018-09-10T23:22:39.238Z,47.70
2018-09-10T23:25:06.727Z,47.30
2018-09-10T23:27:34.174Z,48.00
2018-09-10T23:30:01.589Z,48.10
2018-09-10T23:32:29.048Z,48.00
2018-09-10T23:34:56.525Z,48.40
2018-09-10T23:37:24.134Z,47.90
2018-09-10T23:39:51.577Z,47.90
2018-09-10T23:42:19.015Z,47.90
2018-09-10T23:44:46.513Z,47.80
2018-09-10T23:47:14.029Z,47.70
2018-09-10T23:49:41.564Z,47.50
2018-09-10T23:52:09.023Z,47.50
2018-09-10T23:54:36.483Z,46.50
2018-09-10T23:57:04.331Z,47.00
2018-09-10T23:59:32.048Z,47.50
